sensor_id;sensor_type;location;lat;lon;timestamp;P1;durP1;ratioP1;P2;durP2;ratioP2
65855;SDS011;52631;42.208;24.656;2022-11-23T00:01:17;6.20;;;3.50;;
65855;SDS011;52631;42.208;24.656;2022-11-23T00:03:43;6.78;;;2.85;;
65855;SDS011;52631;42.208;24.656;2022-11-23T00:06:10;8.85;;;3.28;;
65855;SDS011;52631;42.208;24.656;2022-11-23T00:08:35;6.13;;;3.10;;
65855;SDS011;52631;42.208;24.656;2022-11-23T00:11:01;5.22;;;2.78;;
65855;SDS011;52631;42.208;24.656;2022-11-23T00:13:27;5.90;;;3.08;;
65855;SDS011;52631;42.208;24.656;2022-11-23T00:15:52;8.60;;;3.70;;
65855;SDS011;52631;42.208;24.656;2022-11-23T00:18:17;7.65;;;4.35;;
65855;SDS011;52631;42.208;24.656;2022-11-23T00:20:43;14.55;;;7.70;;
65855;SDS011;52631;42.208;24.656;2022-11-23T00:23:09;18.25;;;8.82;;
65855;SDS011;52631;42.208;24.656;2022-11-23T00:25:34;16.20;;;9.18;;
65855;SDS011;52631;42.208;24.656;2022-11-23T00:28:00;14.15;;;8.68;;
65855;SDS011;52631;42.208;24.656;2022-11-23T00:30:25;15.55;;;9.57;;
65855;SDS011;52631;42.208;24.656;2022-11-23T00:32:51;18.35;;;10.45;;
65855;SDS011;52631;42.208;24.656;2022-11-23T00:35:18;17.85;;;10.10;;
65855;SDS011;52631;42.208;24.656;2022-11-23T00:37:43;18.73;;;10.18;;
65855;SDS011;52631;42.208;24.656;2022-11-23T00:40:08;22.92;;;11.32;;
65855;SDS011;52631;42.208;24.656;2022-11-23T00:42:34;22.33;;;11.95;;
65855;SDS011;52631;42.208;24.656;2022-11-23T00:44:59;18.38;;;10.55;;
65855;SDS011;52631;42.208;24.656;2022-11-23T00:47:25;20.65;;;11.30;;
65855;SDS011;52631;42.208;24.656;2022-11-23T00:49:50;20.45;;;11.50;;
65855;SDS011;52631;42.208;24.656;2022-11-23T00:52:16;20.67;;;11.30;;
65855;SDS011;52631;42.208;24.656;2022-11-23T00:54:41;22.10;;;11.55;;
65855;SDS011;52631;42.208;24.656;2022-11-23T00:57:07;21.73;;;10.38;;
65855;SDS011;52631;42.208;24.656;2022-11-23T00:59:32;37.63;;;21.10;;
65855;SDS011;52631;42.208;24.656;2022-11-23T01:01:58;25.90;;;14.10;;
65855;SDS011;52631;42.208;24.656;2022-11-23T01:04:23;22.50;;;13.15;;
65855;SDS011;52631;42.208;24.656;2022-11-23T01:06:49;23.80;;;11.13;;
65855;SDS011;52631;42.208;24.656;2022-11-23T01:09:19;18.13;;;11.65;;
65855;SDS011;52631;42.208;24.656;2022-11-23T01:11:49;23.00;;;11.20;;
65855;SDS011;52631;42.208;24.656;2022-11-23T01:14:14;22.50;;;11.82;;
65855;SDS011;52631;42.208;24.656;2022-11-23T01:16:41;19.92;;;11.15;;
65855;SDS011;52631;42.208;24.656;2022-11-23T01:19:09;26.60;;;12.88;;
65855;SDS011;52631;42.208;24.656;2022-11-23T01:21:37;23.88;;;12.90;;
65855;SDS011;52631;42.208;24.656;2022-11-23T01:24:07;23.80;;;12.77;;
65855;SDS011;52631;42.208;24.656;2022-11-23T01:26:33;35.67;;;19.87;;
65855;SDS011;52631;42.208;24.656;2022-11-23T01:28:59;27.23;;;13.82;;
65855;SDS011;52631;42.208;24.656;2022-11-23T01:31:25;22.40;;;11.00;;
65855;SDS011;52631;42.208;24.656;2022-11-23T01:33:57;20.98;;;12.30;;
65855;SDS011;52631;42.208;24.656;2022-11-23T01:36:26;25.38;;;13.30;;
65855;SDS011;52631;42.208;24.656;2022-11-23T01:38:52;24.08;;;13.18;;
65855;SDS011;52631;42.208;24.656;2022-11-23T01:41:22;24.30;;;13.07;;
65855;SDS011;52631;42.208;24.656;2022-11-23T01:43:52;25.13;;;13.30;;
65855;SDS011;52631;42.208;24.656;2022-11-23T01:46:17;22.10;;;13.25;;
65855;SDS011;52631;42.208;24.656;2022-11-23T01:51:42;25.88;;;12.82;;
65855;SDS011;52631;42.208;24.656;2022-11-23T01:54:07;21.42;;;11.77;;
65855;SDS011;52631;42.208;24.656;2022-11-23T01:56:38;26.17;;;13.25;;
65855;SDS011;52631;42.208;24.656;2022-11-23T01:59:06;23.27;;;12.02;;
65855;SDS011;52631;42.208;24.656;2022-11-23T02:01:34;21.08;;;12.57;;
65855;SDS011;52631;42.208;24.656;2022-11-23T02:04:00;20.63;;;11.82;;
65855;SDS011;52631;42.208;24.656;2022-11-23T02:06:25;21.33;;;12.05;;
65855;SDS011;52631;42.208;24.656;2022-11-23T02:08:51;43.20;;;21.40;;
65855;SDS011;52631;42.208;24.656;2022-11-23T02:11:16;29.30;;;16.27;;
65855;SDS011;52631;42.208;24.656;2022-11-23T02:13:43;29.73;;;14.75;;
65855;SDS011;52631;42.208;24.656;2022-11-23T02:16:10;24.33;;;13.77;;
65855;SDS011;52631;42.208;24.656;2022-11-23T02:18:36;23.35;;;12.93;;
65855;SDS011;52631;42.208;24.656;2022-11-23T02:21:04;23.42;;;13.10;;
65855;SDS011;52631;42.208;24.656;2022-11-23T02:23:35;22.95;;;13.43;;
65855;SDS011;52631;42.208;24.656;2022-11-23T02:26:20;25.88;;;13.77;;
65855;SDS011;52631;42.208;24.656;2022-11-23T02:31:24;24.02;;;13.82;;
65855;SDS011;52631;42.208;24.656;2022-11-23T02:33:49;25.35;;;13.35;;
65855;SDS011;52631;42.208;24.656;2022-11-23T02:41:38;24.95;;;12.80;;
65855;SDS011;52631;42.208;24.656;2022-11-23T02:44:05;22.70;;;13.30;;
65855;SDS011;52631;42.208;24.656;2022-11-23T02:46:36;22.50;;;12.43;;
65855;SDS011;52631;42.208;24.656;2022-11-23T02:49:01;24.92;;;13.55;;
65855;SDS011;52631;42.208;24.656;2022-11-23T02:51:27;27.42;;;14.25;;
65855;SDS011;52631;42.208;24.656;2022-11-23T02:53:52;25.52;;;11.65;;
65855;SDS011;52631;42.208;24.656;2022-11-23T02:56:17;19.95;;;10.80;;
65855;SDS011;52631;42.208;24.656;2022-11-23T02:58:43;24.77;;;12.02;;
65855;SDS011;52631;42.208;24.656;2022-11-23T03:01:08;24.20;;;12.18;;
65855;SDS011;52631;42.208;24.656;2022-11-23T03:03:34;22.95;;;13.23;;
65855;SDS011;52631;42.208;24.656;2022-11-23T03:05:59;21.35;;;11.55;;
65855;SDS011;52631;42.208;24.656;2022-11-23T03:08:25;20.85;;;12.90;;
65855;SDS011;52631;42.208;24.656;2022-11-23T03:10:50;23.90;;;12.20;;
65855;SDS011;52631;42.208;24.656;2022-11-23T03:13:15;21.52;;;11.30;;
65855;SDS011;52631;42.208;24.656;2022-11-23T03:15:41;20.85;;;12.48;;
65855;SDS011;52631;42.208;24.656;2022-11-23T03:18:06;18.80;;;10.85;;
65855;SDS011;52631;42.208;24.656;2022-11-23T03:20:32;34.72;;;21.63;;
65855;SDS011;52631;42.208;24.656;2022-11-23T03:22:57;20.73;;;11.02;;
65855;SDS011;52631;42.208;24.656;2022-11-23T03:25:22;17.25;;;9.70;;
65855;SDS011;52631;42.208;24.656;2022-11-23T03:27:48;19.77;;;10.68;;
65855;SDS011;52631;42.208;24.656;2022-11-23T03:30:14;19.45;;;9.63;;
65855;SDS011;52631;42.208;24.656;2022-11-23T03:32:39;18.13;;;9.80;;
65855;SDS011;52631;42.208;24.656;2022-11-23T03:35:05;19.92;;;10.57;;
65855;SDS011;52631;42.208;24.656;2022-11-23T03:37:31;18.98;;;9.73;;
65855;SDS011;52631;42.208;24.656;2022-11-23T03:39:57;19.58;;;9.90;;
65855;SDS011;52631;42.208;24.656;2022-11-23T03:42:23;19.45;;;9.32;;
65855;SDS011;52631;42.208;24.656;2022-11-23T03:44:48;16.00;;;9.55;;
65855;SDS011;52631;42.208;24.656;2022-11-23T03:47:14;16.30;;;9.02;;
65855;SDS011;52631;42.208;24.656;2022-11-23T03:49:40;18.77;;;9.32;;
65855;SDS011;52631;42.208;24.656;2022-11-23T03:52:05;13.75;;;8.15;;
65855;SDS011;52631;42.208;24.656;2022-11-23T03:54:31;16.02;;;8.75;;
65855;SDS011;52631;42.208;24.656;2022-11-23T03:56:56;15.25;;;8.63;;
65855;SDS011;52631;42.208;24.656;2022-11-23T03:59:22;14.35;;;8.40;;
65855;SDS011;52631;42.208;24.656;2022-11-23T04:01:47;16.45;;;9.60;;
65855;SDS011;52631;42.208;24.656;2022-11-23T04:04:13;15.40;;;9.63;;
65855;SDS011;52631;42.208;24.656;2022-11-23T04:06:38;18.38;;;9.32;;
65855;SDS011;52631;42.208;24.656;2022-11-23T04:09:03;16.10;;;8.90;;
65855;SDS011;52631;42.208;24.656;2022-11-23T04:11:29;18.85;;;9.43;;
65855;SDS011;52631;42.208;24.656;2022-11-23T04:13:54;18.25;;;10.18;;
65855;SDS011;52631;42.208;24.656;2022-11-23T04:16:20;20.77;;;10.40;;
65855;SDS011;52631;42.208;24.656;2022-11-23T04:18:45;21.00;;;11.32;;
65855;SDS011;52631;42.208;24.656;2022-11-23T04:21:11;20.98;;;10.73;;
65855;SDS011;52631;42.208;24.656;2022-11-23T04:23:36;19.25;;;10.40;;
65855;SDS011;52631;42.208;24.656;2022-11-23T04:26:02;17.00;;;9.82;;
65855;SDS011;52631;42.208;24.656;2022-11-23T04:28:27;15.73;;;9.05;;
65855;SDS011;52631;42.208;24.656;2022-11-23T04:30:52;18.20;;;9.40;;
65855;SDS011;52631;42.208;24.656;2022-11-23T04:33:18;14.68;;;8.57;;
65855;SDS011;52631;42.208;24.656;2022-11-23T04:35:43;15.60;;;9.15;;
65855;SDS011;52631;42.208;24.656;2022-11-23T04:38:09;16.65;;;9.57;;
65855;SDS011;52631;42.208;24.656;2022-11-23T04:40:34;17.15;;;9.45;;
65855;SDS011;52631;42.208;24.656;2022-11-23T04:43:00;18.02;;;9.95;;
65855;SDS011;52631;42.208;24.656;2022-11-23T04:45:25;19.20;;;9.32;;
65855;SDS011;52631;42.208;24.656;2022-11-23T04:47:51;16.42;;;9.13;;
65855;SDS011;52631;42.208;24.656;2022-11-23T04:50:16;14.63;;;8.93;;
65855;SDS011;52631;42.208;24.656;2022-11-23T04:52:42;18.00;;;9.25;;
65855;SDS011;52631;42.208;24.656;2022-11-23T04:55:07;13.07;;;8.25;;
65855;SDS011;52631;42.208;24.656;2022-11-23T04:57:33;15.95;;;8.45;;
65855;SDS011;52631;42.208;24.656;2022-11-23T04:59:58;16.48;;;8.75;;
65855;SDS011;52631;42.208;24.656;2022-11-23T05:02:24;13.88;;;8.07;;
65855;SDS011;52631;42.208;24.656;2022-11-23T05:04:49;18.13;;;9.90;;
65855;SDS011;52631;42.208;24.656;2022-11-23T05:07:15;20.83;;;9.73;;
65855;SDS011;52631;42.208;24.656;2022-11-23T05:09:41;16.27;;;9.45;;
65855;SDS011;52631;42.208;24.656;2022-11-23T05:12:07;17.13;;;9.88;;
65855;SDS011;52631;42.208;24.656;2022-11-23T05:14:33;17.20;;;9.70;;
65855;SDS011;52631;42.208;24.656;2022-11-23T05:16:58;17.20;;;8.73;;
65855;SDS011;52631;42.208;24.656;2022-11-23T05:19:24;15.10;;;8.80;;
65855;SDS011;52631;42.208;24.656;2022-11-23T05:21:49;15.07;;;9.07;;
65855;SDS011;52631;42.208;24.656;2022-11-23T05:24:15;16.02;;;8.35;;
65855;SDS011;52631;42.208;24.656;2022-11-23T05:26:40;12.40;;;7.53;;
65855;SDS011;52631;42.208;24.656;2022-11-23T05:29:05;14.20;;;7.60;;
65855;SDS011;52631;42.208;24.656;2022-11-23T05:31:31;13.57;;;7.70;;
65855;SDS011;52631;42.208;24.656;2022-11-23T05:33:56;15.57;;;7.97;;
65855;SDS011;52631;42.208;24.656;2022-11-23T05:36:22;13.52;;;7.30;;
65855;SDS011;52631;42.208;24.656;2022-11-23T05:38:47;11.98;;;7.35;;
65855;SDS011;52631;42.208;24.656;2022-11-23T05:41:13;13.43;;;7.00;;
65855;SDS011;52631;42.208;24.656;2022-11-23T05:43:38;14.70;;;6.80;;
65855;SDS011;52631;42.208;24.656;2022-11-23T05:46:04;15.35;;;7.65;;
65855;SDS011;52631;42.208;24.656;2022-11-23T05:48:29;13.60;;;7.55;;
65855;SDS011;52631;42.208;24.656;2022-11-23T05:50:55;11.85;;;6.40;;
65855;SDS011;52631;42.208;24.656;2022-11-23T05:53:20;13.82;;;7.43;;
65855;SDS011;52631;42.208;24.656;2022-11-23T05:55:46;16.67;;;7.97;;
65855;SDS011;52631;42.208;24.656;2022-11-23T05:58:11;15.23;;;7.72;;
65855;SDS011;52631;42.208;24.656;2022-11-23T06:00:37;15.75;;;7.43;;
65855;SDS011;52631;42.208;24.656;2022-11-23T06:03:03;12.65;;;7.28;;
65855;SDS011;52631;42.208;24.656;2022-11-23T06:05:28;11.30;;;7.05;;
65855;SDS011;52631;42.208;24.656;2022-11-23T06:07:54;15.77;;;8.02;;
65855;SDS011;52631;42.208;24.656;2022-11-23T06:10:20;15.02;;;7.43;;
65855;SDS011;52631;42.208;24.656;2022-11-23T06:12:45;16.48;;;8.10;;
65855;SDS011;52631;42.208;24.656;2022-11-23T06:15:11;13.82;;;7.95;;
65855;SDS011;52631;42.208;24.656;2022-11-23T06:17:36;11.40;;;7.13;;
65855;SDS011;52631;42.208;24.656;2022-11-23T06:20:03;15.90;;;8.27;;
65855;SDS011;52631;42.208;24.656;2022-11-23T06:22:29;13.48;;;8.18;;
65855;SDS011;52631;42.208;24.656;2022-11-23T06:24:55;14.70;;;8.05;;
65855;SDS011;52631;42.208;24.656;2022-11-23T06:27:20;15.45;;;8.75;;
65855;SDS011;52631;42.208;24.656;2022-11-23T06:29:46;17.75;;;8.98;;
65855;SDS011;52631;42.208;24.656;2022-11-23T06:32:11;19.25;;;9.07;;
65855;SDS011;52631;42.208;24.656;2022-11-23T06:34:37;14.60;;;8.90;;
65855;SDS011;52631;42.208;24.656;2022-11-23T06:37:02;18.17;;;8.90;;
65855;SDS011;52631;42.208;24.656;2022-11-23T06:39:29;17.17;;;9.82;;
65855;SDS011;52631;42.208;24.656;2022-11-23T06:41:55;16.33;;;8.85;;
65855;SDS011;52631;42.208;24.656;2022-11-23T06:44:20;16.08;;;9.30;;
65855;SDS011;52631;42.208;24.656;2022-11-23T06:46:46;16.65;;;9.10;;
65855;SDS011;52631;42.208;24.656;2022-11-23T06:49:11;18.83;;;8.73;;
65855;SDS011;52631;42.208;24.656;2022-11-23T06:51:37;15.73;;;9.60;;
65855;SDS011;52631;42.208;24.656;2022-11-23T06:54:02;19.00;;;9.18;;
65855;SDS011;52631;42.208;24.656;2022-11-23T06:56:30;21.85;;;10.95;;
65855;SDS011;52631;42.208;24.656;2022-11-23T06:58:55;18.30;;;10.32;;
65855;SDS011;52631;42.208;24.656;2022-11-23T07:01:21;17.92;;;9.10;;
65855;SDS011;52631;42.208;24.656;2022-11-23T07:03:46;16.30;;;8.85;;
65855;SDS011;52631;42.208;24.656;2022-11-23T07:06:12;16.70;;;8.48;;
65855;SDS011;52631;42.208;24.656;2022-11-23T07:08:37;15.02;;;9.07;;
65855;SDS011;52631;42.208;24.656;2022-11-23T07:11:08;17.55;;;9.00;;
65855;SDS011;52631;42.208;24.656;2022-11-23T07:13:34;13.13;;;8.52;;
65855;SDS011;52631;42.208;24.656;2022-11-23T07:15:59;14.80;;;9.25;;
65855;SDS011;52631;42.208;24.656;2022-11-23T07:18:25;13.82;;;8.15;;
65855;SDS011;52631;42.208;24.656;2022-11-23T07:20:50;19.48;;;9.68;;
65855;SDS011;52631;42.208;24.656;2022-11-23T07:23:16;20.02;;;10.48;;
65855;SDS011;52631;42.208;24.656;2022-11-23T07:25:41;20.95;;;10.25;;
65855;SDS011;52631;42.208;24.656;2022-11-23T07:28:07;14.73;;;8.73;;
65855;SDS011;52631;42.208;24.656;2022-11-23T07:30:34;18.10;;;9.63;;
65855;SDS011;52631;42.208;24.656;2022-11-23T07:33:01;21.52;;;11.45;;
65855;SDS011;52631;42.208;24.656;2022-11-23T07:35:28;19.27;;;9.95;;
65855;SDS011;52631;42.208;24.656;2022-11-23T07:37:53;18.77;;;9.23;;
65855;SDS011;52631;42.208;24.656;2022-11-23T07:40:19;22.98;;;10.32;;
65855;SDS011;52631;42.208;24.656;2022-11-23T07:42:45;21.52;;;11.13;;
65855;SDS011;52631;42.208;24.656;2022-11-23T07:45:10;25.33;;;11.57;;
65855;SDS011;52631;42.208;24.656;2022-11-23T07:47:36;23.70;;;10.98;;
65855;SDS011;52631;42.208;24.656;2022-11-23T07:50:02;18.55;;;10.35;;
65855;SDS011;52631;42.208;24.656;2022-11-23T07:52:29;20.50;;;10.95;;
65855;SDS011;52631;42.208;24.656;2022-11-23T07:54:55;24.85;;;11.95;;
65855;SDS011;52631;42.208;24.656;2022-11-23T07:57:20;17.60;;;8.52;;
65855;SDS011;52631;42.208;24.656;2022-11-23T07:59:46;17.25;;;8.40;;
65855;SDS011;52631;42.208;24.656;2022-11-23T08:02:12;17.58;;;9.00;;
65855;SDS011;52631;42.208;24.656;2022-11-23T08:04:39;16.50;;;8.23;;
65855;SDS011;52631;42.208;24.656;2022-11-23T08:07:04;15.95;;;8.40;;
65855;SDS011;52631;42.208;24.656;2022-11-23T08:09:30;18.10;;;9.95;;
65855;SDS011;52631;42.208;24.656;2022-11-23T08:11:55;19.67;;;10.85;;
65855;SDS011;52631;42.208;24.656;2022-11-23T08:14:21;23.48;;;12.15;;
65855;SDS011;52631;42.208;24.656;2022-11-23T08:16:47;19.85;;;10.57;;
65855;SDS011;52631;42.208;24.656;2022-11-23T08:19:14;20.20;;;10.65;;
65855;SDS011;52631;42.208;24.656;2022-11-23T08:21:40;20.42;;;8.80;;
65855;SDS011;52631;42.208;24.656;2022-11-23T08:24:05;18.42;;;9.43;;
65855;SDS011;52631;42.208;24.656;2022-11-23T08:26:31;21.17;;;10.45;;
65855;SDS011;52631;42.208;24.656;2022-11-23T08:28:56;16.13;;;9.80;;
65855;SDS011;52631;42.208;24.656;2022-11-23T08:31:22;21.23;;;11.02;;
65855;SDS011;52631;42.208;24.656;2022-11-23T08:33:47;21.52;;;10.45;;
65855;SDS011;52631;42.208;24.656;2022-11-23T08:36:13;18.70;;;9.63;;
65855;SDS011;52631;42.208;24.656;2022-11-23T08:38:38;21.85;;;11.13;;
65855;SDS011;52631;42.208;24.656;2022-11-23T08:41:04;22.92;;;11.30;;
65855;SDS011;52631;42.208;24.656;2022-11-23T08:43:29;25.05;;;11.73;;
65855;SDS011;52631;42.208;24.656;2022-11-23T08:45:56;20.17;;;10.98;;
65855;SDS011;52631;42.208;24.656;2022-11-23T08:48:22;20.90;;;12.13;;
65855;SDS011;52631;42.208;24.656;2022-11-23T08:50:48;22.05;;;11.43;;
65855;SDS011;52631;42.208;24.656;2022-11-23T08:53:13;20.55;;;11.10;;
65855;SDS011;52631;42.208;24.656;2022-11-23T08:55:39;24.80;;;11.27;;
65855;SDS011;52631;42.208;24.656;2022-11-23T08:58:06;23.15;;;10.63;;
65855;SDS011;52631;42.208;24.656;2022-11-23T09:00:32;19.55;;;9.95;;
65855;SDS011;52631;42.208;24.656;2022-11-23T09:02:58;19.00;;;10.70;;
65855;SDS011;52631;42.208;24.656;2022-11-23T09:05:25;22.88;;;11.45;;
65855;SDS011;52631;42.208;24.656;2022-11-23T09:07:51;18.17;;;9.93;;
65855;SDS011;52631;42.208;24.656;2022-11-23T09:10:16;21.92;;;10.48;;
65855;SDS011;52631;42.208;24.656;2022-11-23T09:12:42;21.50;;;11.52;;
65855;SDS011;52631;42.208;24.656;2022-11-23T09:15:07;20.27;;;10.75;;
65855;SDS011;52631;42.208;24.656;2022-11-23T09:17:33;18.10;;;9.95;;
65855;SDS011;52631;42.208;24.656;2022-11-23T09:19:59;18.63;;;10.35;;
65855;SDS011;52631;42.208;24.656;2022-11-23T09:22:25;14.20;;;7.70;;
65855;SDS011;52631;42.208;24.656;2022-11-23T09:24:52;14.88;;;8.23;;
65855;SDS011;52631;42.208;24.656;2022-11-23T09:27:17;15.15;;;8.00;;
65855;SDS011;52631;42.208;24.656;2022-11-23T09:29:43;14.63;;;7.97;;
65855;SDS011;52631;42.208;24.656;2022-11-23T09:32:09;14.48;;;7.25;;
65855;SDS011;52631;42.208;24.656;2022-11-23T09:34:35;17.08;;;7.40;;
65855;SDS011;52631;42.208;24.656;2022-11-23T09:37:00;14.18;;;7.32;;
65855;SDS011;52631;42.208;24.656;2022-11-23T09:39:26;15.07;;;8.30;;
65855;SDS011;52631;42.208;24.656;2022-11-23T09:50:33;14.10;;;6.80;;
65855;SDS011;52631;42.208;24.656;2022-11-23T09:53:08;11.38;;;6.80;;
65855;SDS011;52631;42.208;24.656;2022-11-23T09:55:40;12.63;;;6.90;;
65855;SDS011;52631;42.208;24.656;2022-11-23T09:58:09;12.07;;;7.55;;
65855;SDS011;52631;42.208;24.656;2022-11-23T10:00:40;14.50;;;7.78;;
65855;SDS011;52631;42.208;24.656;2022-11-23T10:03:15;15.40;;;9.02;;
65855;SDS011;52631;42.208;24.656;2022-11-23T10:08:50;12.82;;;8.13;;
65855;SDS011;52631;42.208;24.656;2022-11-23T10:20:06;13.00;;;7.25;;
65855;SDS011;52631;42.208;24.656;2022-11-23T10:23:01;11.23;;;6.93;;
65855;SDS011;52631;42.208;24.656;2022-11-23T10:25:31;11.32;;;7.18;;
65855;SDS011;52631;42.208;24.656;2022-11-23T10:28:01;13.00;;;7.30;;
65855;SDS011;52631;42.208;24.656;2022-11-23T10:30:36;13.95;;;7.43;;
65855;SDS011;52631;42.208;24.656;2022-11-23T10:35:45;12.48;;;6.97;;
65855;SDS011;52631;42.208;24.656;2022-11-23T10:38:15;14.38;;;8.40;;
65855;SDS011;52631;42.208;24.656;2022-11-23T10:43:14;13.13;;;8.30;;
65855;SDS011;52631;42.208;24.656;2022-11-23T10:45:42;17.40;;;9.05;;
65855;SDS011;52631;42.208;24.656;2022-11-23T10:48:08;13.85;;;7.68;;
65855;SDS011;52631;42.208;24.656;2022-11-23T10:50:37;15.48;;;8.40;;
65855;SDS011;52631;42.208;24.656;2022-11-23T10:55:44;14.10;;;8.48;;
65855;SDS011;52631;42.208;24.656;2022-11-23T10:58:25;15.77;;;8.35;;
65855;SDS011;52631;42.208;24.656;2022-11-23T11:00:59;14.27;;;8.07;;
65855;SDS011;52631;42.208;24.656;2022-11-23T11:03:28;16.50;;;9.48;;
65855;SDS011;52631;42.208;24.656;2022-11-23T11:05:57;17.20;;;8.65;;
65855;SDS011;52631;42.208;24.656;2022-11-23T11:08:24;11.63;;;7.40;;
65855;SDS011;52631;42.208;24.656;2022-11-23T11:11:06;14.35;;;8.45;;
65855;SDS011;52631;42.208;24.656;2022-11-23T11:16:05;18.00;;;9.57;;
65855;SDS011;52631;42.208;24.656;2022-11-23T11:18:35;12.87;;;7.67;;
65855;SDS011;52631;42.208;24.656;2022-11-23T11:21:06;17.58;;;10.90;;
65855;SDS011;52631;42.208;24.656;2022-11-23T11:23:40;17.35;;;7.65;;
65855;SDS011;52631;42.208;24.656;2022-11-23T11:26:06;16.00;;;9.52;;
65855;SDS011;52631;42.208;24.656;2022-11-23T11:28:39;13.38;;;7.30;;
65855;SDS011;52631;42.208;24.656;2022-11-23T11:39:52;14.55;;;7.25;;
65855;SDS011;52631;42.208;24.656;2022-11-23T11:42:20;14.20;;;8.00;;
65855;SDS011;52631;42.208;24.656;2022-11-23T11:44:51;11.23;;;7.75;;
65855;SDS011;52631;42.208;24.656;2022-11-23T11:47:22;11.73;;;6.25;;
65855;SDS011;52631;42.208;24.656;2022-11-23T11:49:54;14.40;;;7.00;;
65855;SDS011;52631;42.208;24.656;2022-11-23T11:52:21;12.50;;;7.00;;
65855;SDS011;52631;42.208;24.656;2022-11-23T11:54:51;12.75;;;7.00;;
65855;SDS011;52631;42.208;24.656;2022-11-23T11:57:23;14.82;;;7.70;;
65855;SDS011;52631;42.208;24.656;2022-11-23T12:00:05;13.25;;;7.28;;
65855;SDS011;52631;42.208;24.656;2022-11-23T12:05:49;11.23;;;6.78;;
65855;SDS011;52631;42.208;24.656;2022-11-23T12:10:54;12.68;;;7.22;;
65855;SDS011;52631;42.208;24.656;2022-11-23T12:13:27;13.20;;;6.40;;
65855;SDS011;52631;42.208;24.656;2022-11-23T12:18:32;14.55;;;7.00;;
65855;SDS011;52631;42.208;24.656;2022-11-23T12:21:35;10.27;;;6.57;;
65855;SDS011;52631;42.208;24.656;2022-11-23T12:27:04;10.80;;;6.50;;
65855;SDS011;52631;42.208;24.656;2022-11-23T12:32:48;8.73;;;5.53;;
65855;SDS011;52631;42.208;24.656;2022-11-23T12:38:08;12.50;;;6.95;;
65855;SDS011;52631;42.208;24.656;2022-11-23T12:40:55;11.95;;;6.68;;
65855;SDS011;52631;42.208;24.656;2022-11-23T12:44:25;9.45;;;5.93;;
65855;SDS011;52631;42.208;24.656;2022-11-23T12:51:50;12.80;;;6.55;;
65855;SDS011;52631;42.208;24.656;2022-11-23T12:57:36;11.23;;;6.72;;
65855;SDS011;52631;42.208;24.656;2022-11-23T13:00:05;13.35;;;6.22;;
65855;SDS011;52631;42.208;24.656;2022-11-23T13:19:25;13.95;;;6.97;;
65855;SDS011;52631;42.208;24.656;2022-11-23T13:22:14;14.88;;;7.38;;
65855;SDS011;52631;42.208;24.656;2022-11-23T13:25:03;13.07;;;7.32;;
65855;SDS011;52631;42.208;24.656;2022-11-23T13:27:59;11.73;;;6.60;;
65855;SDS011;52631;42.208;24.656;2022-11-23T13:30:43;17.05;;;8.52;;
65855;SDS011;52631;42.208;24.656;2022-11-23T13:40:37;12.48;;;7.40;;
65855;SDS011;52631;42.208;24.656;2022-11-23T13:43:12;15.05;;;7.00;;
65855;SDS011;52631;42.208;24.656;2022-11-23T13:45:39;10.10;;;6.18;;
65855;SDS011;52631;42.208;24.656;2022-11-23T13:50:34;9.93;;;6.20;;
65855;SDS011;52631;42.208;24.656;2022-11-23T13:56:15;13.55;;;7.78;;
65855;SDS011;52631;42.208;24.656;2022-11-23T13:59:34;16.55;;;6.80;;
65855;SDS011;52631;42.208;24.656;2022-11-23T14:04:39;12.93;;;7.03;;
65855;SDS011;52631;42.208;24.656;2022-11-23T14:09:51;11.48;;;6.63;;
65855;SDS011;52631;42.208;24.656;2022-11-23T14:12:22;12.65;;;6.65;;
65855;SDS011;52631;42.208;24.656;2022-11-23T14:15:06;12.20;;;5.80;;
65855;SDS011;52631;42.208;24.656;2022-11-23T14:37:27;14.73;;;8.70;;
65855;SDS011;52631;42.208;24.656;2022-11-23T14:41:03;20.58;;;9.93;;
65855;SDS011;52631;42.208;24.656;2022-11-23T14:43:17;12.63;;;7.53;;
65855;SDS011;52631;42.208;24.656;2022-11-23T14:45:43;15.45;;;8.32;;
65855;SDS011;52631;42.208;24.656;2022-11-23T14:51:05;18.27;;;10.70;;
65855;SDS011;52631;42.208;24.656;2022-11-23T14:53:39;20.13;;;10.63;;
65855;SDS011;52631;42.208;24.656;2022-11-23T14:56:17;23.10;;;13.73;;
65855;SDS011;52631;42.208;24.656;2022-11-23T14:58:46;25.02;;;15.40;;
65855;SDS011;52631;42.208;24.656;2022-11-23T15:01:15;30.77;;;15.15;;
65855;SDS011;52631;42.208;24.656;2022-11-23T15:03:44;23.73;;;11.30;;
65855;SDS011;52631;42.208;24.656;2022-11-23T15:06:20;20.20;;;11.68;;
65855;SDS011;52631;42.208;24.656;2022-11-23T15:09:02;21.17;;;11.60;;
65855;SDS011;52631;42.208;24.656;2022-11-23T15:11:32;15.50;;;8.80;;
65855;SDS011;52631;42.208;24.656;2022-11-23T15:14:01;17.95;;;9.90;;
65855;SDS011;52631;42.208;24.656;2022-11-23T15:16:26;18.55;;;8.85;;
65855;SDS011;52631;42.208;24.656;2022-11-23T15:18:51;23.77;;;10.63;;
65855;SDS011;52631;42.208;24.656;2022-11-23T15:21:20;20.45;;;9.68;;
65855;SDS011;52631;42.208;24.656;2022-11-23T15:23:48;27.07;;;12.43;;
65855;SDS011;52631;42.208;24.656;2022-11-23T15:26:36;33.58;;;14.65;;
65855;SDS011;52631;42.208;24.656;2022-11-23T15:29:01;31.10;;;15.00;;
65855;SDS011;52631;42.208;24.656;2022-11-23T15:31:33;40.70;;;19.05;;
65855;SDS011;52631;42.208;24.656;2022-11-23T15:34:12;33.10;;;16.05;;
65855;SDS011;52631;42.208;24.656;2022-11-23T15:36:40;39.53;;;16.48;;
65855;SDS011;52631;42.208;24.656;2022-11-23T15:39:06;38.03;;;18.88;;
65855;SDS011;52631;42.208;24.656;2022-11-23T15:41:41;38.78;;;19.08;;
65855;SDS011;52631;42.208;24.656;2022-11-23T15:47:03;76.30;;;40.55;;
65855;SDS011;52631;42.208;24.656;2022-11-23T15:49:30;63.17;;;33.60;;
65855;SDS011;52631;42.208;24.656;2022-11-23T15:52:00;60.03;;;31.85;;
65855;SDS011;52631;42.208;24.656;2022-11-23T15:54:44;80.60;;;37.58;;
65855;SDS011;52631;42.208;24.656;2022-11-23T15:57:18;88.60;;;43.53;;
65855;SDS011;52631;42.208;24.656;2022-11-23T15:59:49;60.80;;;30.02;;
65855;SDS011;52631;42.208;24.656;2022-11-23T16:02:22;91.20;;;39.28;;
65855;SDS011;52631;42.208;24.656;2022-11-23T16:07:54;78.13;;;30.02;;
65855;SDS011;52631;42.208;24.656;2022-11-23T16:10:28;63.20;;;27.67;;
65855;SDS011;52631;42.208;24.656;2022-11-23T16:12:58;47.95;;;24.10;;
65855;SDS011;52631;42.208;24.656;2022-11-23T16:15:36;51.03;;;22.58;;
65855;SDS011;52631;42.208;24.656;2022-11-23T16:20:50;51.60;;;23.40;;
65855;SDS011;52631;42.208;24.656;2022-11-23T16:23:22;56.72;;;23.90;;
65855;SDS011;52631;42.208;24.656;2022-11-23T16:26:07;55.13;;;24.95;;
65855;SDS011;52631;42.208;24.656;2022-11-23T16:28:36;53.42;;;24.40;;
65855;SDS011;52631;42.208;24.656;2022-11-23T16:31:03;53.75;;;27.10;;
65855;SDS011;52631;42.208;24.656;2022-11-23T16:33:29;50.75;;;26.13;;
65855;SDS011;52631;42.208;24.656;2022-11-23T16:35:55;35.05;;;19.60;;
65855;SDS011;52631;42.208;24.656;2022-11-23T16:38:20;32.17;;;17.30;;
65855;SDS011;52631;42.208;24.656;2022-11-23T16:40:48;34.80;;;19.23;;
65855;SDS011;52631;42.208;24.656;2022-11-23T16:43:14;38.50;;;21.50;;
65855;SDS011;52631;42.208;24.656;2022-11-23T16:45:47;40.30;;;22.70;;